Time;durP1;ratioP1;P1;durP2;ratioP2;P2;SDS_P1;SDS_P2;PMS_P1;PMS_P2;Temp;Humidity;BMP_temperature;BMP_pressure;BME280_temperature;BME280_humidity;BME280_pressure;Samples;Min_cycle;Max_cycle;Signal;HPM_P1;HPM_P2
2023/03/13 00:01:47;;;;;;;7.30;2.05;;;13.00;99.90;;;;;;5002522;28;20286;-72
2023/03/13 00:04:17;;;;;;;7.03;2.00;;;13.00;99.90;;;;;;5003300;28;20230;-75
2023/03/13 00:06:43;;;;;;;7.57;2.05;;;13.10;99.90;;;;;;5005303;28;20257;-70
2023/03/13 00:09:11;;;;;;;7.78;1.60;;;13.10;99.90;;;;;;4993093;28;20226;-77
2023/03/13 00:11:39;;;;;;;9.07;2.25;;;13.10;99.90;;;;;;4991722;28;20200;-79
2023/03/13 00:14:06;;;;;;;10.02;2.50;;;13.10;99.90;;;;;;4991998;28;20202;-79
2023/03/13 00:16:34;;;;;;;9.70;3.25;;;13.10;99.90;;;;;;4991966;28;20178;-77
2023/03/13 00:19:00;;;;;;;12.55;2.70;;;13.10;99.90;;;;;;4994162;28;20188;-79
2023/03/13 00:21:29;;;;;;;8.40;2.38;;;13.20;99.90;;;;;;4995575;28;20291;-80
2023/03/13 00:24:00;;;;;;;8.00;2.55;;;13.20;99.90;;;;;;4995369;28;20196;-79
2023/03/13 00:26:27;;;;;;;11.20;3.05;;;13.20;99.90;;;;;;4995403;28;20172;-78
2023/03/13 00:28:53;;;;;;;7.32;2.25;;;13.20;99.90;;;;;;4995820;28;20190;-76
2023/03/13 00:31:30;;;;;;;8.15;2.10;;;13.20;99.90;;;;;;4995536;28;20234;-78
2023/03/13 00:34:03;;;;;;;6.85;1.98;;;13.30;99.90;;;;;;4995657;28;20180;-80
2023/03/13 00:36:36;;;;;;;11.43;2.47;;;13.30;99.90;;;;;;4995367;28;20239;-77
2023/03/13 00:39:04;;;;;;;9.90;2.30;;;13.30;99.90;;;;;;4995150;28;20202;-75
2023/03/13 00:41:31;;;;;;;7.60;2.38;;;13.30;99.90;;;;;;4994647;28;20246;-79
2023/03/13 00:43:57;;;;;;;10.43;2.58;;;13.30;99.90;;;;;;4979592;28;20192;-78
2023/03/13 00:46:27;;;;;;;11.35;2.30;;;13.30;99.90;;;;;;4994978;28;20179;-79
2023/03/13 00:48:53;;;;;;;8.48;2.33;;;13.30;99.90;;;;;;4995293;28;20176;-76
2023/03/13 00:51:19;;;;;;;7.65;2.13;;;13.30;99.90;;;;;;4979467;28;20207;-73
2023/03/13 00:53:49;;;;;;;5.88;1.80;;;13.40;99.90;;;;;;4995110;28;20172;-78
2023/03/13 00:56:18;;;;;;;7.13;2.45;;;13.40;99.90;;;;;;4994817;28;20204;-75
2023/03/13 00:58:45;;;;;;;10.13;2.40;;;13.30;99.90;;;;;;4995788;28;20283;-79
2023/03/13 01:01:18;;;;;;;8.95;2.28;;;13.30;99.90;;;;;;4994948;28;20338;-78
2023/03/13 01:03:49;;;;;;;5.88;1.95;;;13.30;99.90;;;;;;4995030;28;20200;-80
2023/03/13 01:06:19;;;;;;;9.32;2.85;;;13.20;99.90;;;;;;4995474;28;20179;-76
2023/03/13 01:08:45;;;;;;;7.40;2.10;;;13.20;99.90;;;;;;4995106;28;20255;-79
2023/03/13 01:11:14;;;;;;;7.07;2.40;;;13.10;99.90;;;;;;4995090;28;20215;-77
2023/03/13 01:13:43;;;;;;;5.88;1.70;;;13.10;99.90;;;;;;4994606;28;20179;-78
2023/03/13 01:16:12;;;;;;;7.85;2.10;;;13.10;99.90;;;;;;4995013;28;20176;-79
2023/03/13 01:18:45;;;;;;;4.50;1.77;;;13.10;99.90;;;;;;4994781;28;20168;-73
2023/03/13 01:21:13;;;;;;;10.13;2.20;;;13.00;99.90;;;;;;4994878;28;20207;-77
2023/03/13 01:23:38;;;;;;;4.97;1.85;;;13.00;99.90;;;;;;4994701;28;20262;-76
2023/03/13 01:26:05;;;;;;;5.25;2.20;;;13.00;99.90;;;;;;4994863;28;20177;-76
2023/03/13 01:28:34;;;;;;;7.15;1.92;;;13.00;99.90;;;;;;4994252;28;20242;-72
2023/03/13 01:31:09;;;;;;;8.75;2.40;;;13.00;99.90;;;;;;4992923;28;20234;-79
2023/03/13 01:33:34;;;;;;;7.28;2.30;;;13.00;99.90;;;;;;4994872;28;20203;-75
2023/03/13 01:36:05;;;;;;;7.47;1.90;;;13.00;99.90;;;;;;4993792;28;20206;-77
2023/03/13 01:38:33;;;;;;;9.95;2.40;;;13.10;99.90;;;;;;4978516;28;20168;-78
2023/03/13 01:41:04;;;;;;;8.05;1.98;;;13.10;99.90;;;;;;4994235;28;20265;-73
2023/03/13 01:43:33;;;;;;;5.47;1.73;;;13.20;99.90;;;;;;4993859;28;20235;-79
2023/03/13 01:46:04;;;;;;;7.70;2.40;;;13.20;99.90;;;;;;4994523;28;20192;-79
2023/03/13 01:48:32;;;;;;;4.93;1.90;;;13.20;99.90;;;;;;4994113;28;20182;-79
2023/03/13 01:51:02;;;;;;;10.30;2.28;;;13.20;99.90;;;;;;4993678;28;20263;-78
2023/03/13 01:53:32;;;;;;;7.18;1.73;;;13.30;99.90;;;;;;4994068;28;20210;-78
2023/03/13 01:56:02;;;;;;;6.63;1.90;;;13.30;99.90;;;;;;4993791;28;20176;-77
2023/03/13 01:58:29;;;;;;;4.78;1.90;;;13.40;99.90;;;;;;4993868;28;20287;-79
2023/03/13 02:01:00;;;;;;;6.47;1.80;;;13.40;99.90;;;;;;4993838;28;20204;-79
2023/03/13 02:03:27;;;;;;;4.57;1.48;;;13.40;99.90;;;;;;4993631;28;20169;-78
2023/03/13 02:06:00;;;;;;;4.63;1.77;;;13.50;99.90;;;;;;4993704;28;20171;-77
2023/03/13 02:08:36;;;;;;;7.55;1.88;;;13.50;99.90;;;;;;4994455;28;20172;-79
2023/03/13 02:11:36;;;;;;;6.18;1.40;;;13.50;99.90;;;;;;4994152;28;20182;-78
2023/03/13 02:14:03;;;;;;;5.32;1.38;;;13.50;99.90;;;;;;4993532;28;20195;-77
2023/03/13 02:16:32;;;;;;;4.70;1.60;;;13.50;99.90;;;;;;4994120;28;20175;-77
2023/03/13 02:19:00;;;;;;;5.53;1.60;;;13.50;99.90;;;;;;4993796;28;20180;-75
2023/03/13 02:21:57;;;;;;;5.05;1.60;;;13.60;99.90;;;;;;4994170;28;20199;-79
2023/03/13 02:24:30;;;;;;;3.85;1.63;;;13.60;99.90;;;;;;4993280;28;20172;-75
2023/03/13 02:26:56;;;;;;;3.35;1.10;;;13.60;99.90;;;;;;4993726;28;20295;-78
2023/03/13 02:29:23;;;;;;;3.40;1.30;;;13.60;99.90;;;;;;4993380;28;20210;-79
2023/03/13 02:31:52;;;;;;;3.50;1.30;;;13.60;99.90;;;;;;4992979;28;20176;-79
2023/03/13 02:34:29;;;;;;;3.72;1.27;;;13.70;99.90;;;;;;4993770;28;20259;-79
2023/03/13 02:36:58;;;;;;;3.75;1.27;;;13.70;99.90;;;;;;4993570;28;20175;-80
2023/03/13 02:39:25;;;;;;;3.67;1.33;;;13.60;99.90;;;;;;4992619;28;20204;-78
2023/03/13 02:41:54;;;;;;;3.70;1.33;;;13.60;99.90;;;;;;4993235;28;20195;-77
2023/03/13 02:44:20;;;;;;;3.83;1.27;;;13.60;99.90;;;;;;4993440;28;20175;-74
2023/03/13 02:46:51;;;;;;;3.30;1.27;;;13.50;99.90;;;;;;4977510;28;20192;-78
2023/03/13 02:49:31;;;;;;;1.80;1.00;;;13.40;99.90;;;;;;4992872;28;20172;-72
2023/03/13 02:52:25;;;;;;;4.30;1.40;;;13.20;99.90;;;;;;4993285;28;20207;-74
2023/03/13 02:55:00;;;;;;;2.45;0.93;;;13.10;99.90;;;;;;4992879;28;20176;-73
2023/03/13 02:57:26;;;;;;;2.58;1.10;;;13.00;99.90;;;;;;4993333;28;20242;-77
2023/03/13 02:59:52;;;;;;;1.80;0.90;;;12.90;99.90;;;;;;4993299;28;20231;-79
2023/03/13 03:02:20;;;;;;;2.88;0.80;;;12.90;99.90;;;;;;4992747;28;20275;-77
2023/03/13 03:04:48;;;;;;;2.60;0.80;;;12.80;99.90;;;;;;4992932;28;20168;-79
2023/03/13 03:07:13;;;;;;;2.50;1.10;;;12.80;99.90;;;;;;4992674;28;20203;-78
2023/03/13 03:09:39;;;;;;;2.45;1.00;;;12.80;99.90;;;;;;4993078;28;20172;-79
2023/03/13 03:12:07;;;;;;;3.53;1.25;;;12.80;99.90;;;;;;4993107;28;20199;-77
2023/03/13 03:14:33;;;;;;;2.72;1.00;;;12.80;99.90;;;;;;4993308;28;20172;-73
2023/03/13 03:16:58;;;;;;;1.92;1.00;;;12.90;99.90;;;;;;4977341;28;20183;-80
2023/03/13 03:19:24;;;;;;;1.70;1.02;;;13.00;99.90;;;;;;4996478;28;20208;-74
2023/03/13 03:21:50;;;;;;;3.03;1.20;;;13.00;99.90;;;;;;4999059;28;20206;-77
2023/03/13 03:24:15;;;;;;;2.13;1.00;;;13.00;99.90;;;;;;4995746;28;20199;-70
2023/03/13 03:26:41;;;;;;;1.38;0.70;;;13.00;99.90;;;;;;4993621;28;20191;-79
2023/03/13 03:29:07;;;;;;;1.88;0.90;;;13.10;99.90;;;;;;4993077;28;20172;-77
2023/03/13 03:31:37;;;;;;;1.80;0.70;;;13.10;99.90;;;;;;4993306;28;20180;-74
2023/03/13 03:34:03;;;;;;;1.23;0.65;;;13.20;99.90;;;;;;4976985;28;20195;-79
2023/03/13 03:36:31;;;;;;;0.75;0.43;;;13.20;99.90;;;;;;4976765;28;20190;-75
2023/03/13 03:38:57;;;;;;;0.98;0.70;;;13.20;99.90;;;;;;4992941;28;20269;-74
2023/03/13 03:41:25;;;;;;;2.28;0.90;;;13.20;99.90;;;;;;4992458;28;20200;-79
2023/03/13 03:43:53;;;;;;;1.38;0.70;;;13.30;99.90;;;;;;4992692;28;20171;-76
2023/03/13 03:46:19;;;;;;;1.70;0.70;;;13.30;99.90;;;;;;4992915;28;20171;-76
2023/03/13 03:48:44;;;;;;;1.17;0.60;;;13.30;99.90;;;;;;4992390;28;20171;-79
2023/03/13 03:51:12;;;;;;;1.00;0.60;;;13.30;99.90;;;;;;4992355;28;20184;-76
2023/03/13 03:53:39;;;;;;;1.00;0.70;;;13.40;99.90;;;;;;4993988;28;20257;-74
2023/03/13 03:56:06;;;;;;;1.10;0.50;;;13.40;99.90;;;;;;4999926;28;20175;-74
2023/03/13 03:58:36;;;;;;;1.55;0.63;;;13.40;99.90;;;;;;5002903;28;20198;-76
2023/03/13 04:01:04;;;;;;;0.60;0.40;;;13.40;99.90;;;;;;4997828;28;20217;-72
2023/03/13 04:03:32;;;;;;;0.45;0.40;;;13.50;99.90;;;;;;5013655;28;20179;-68
2023/03/13 04:05:58;;;;;;;1.45;0.70;;;13.50;99.90;;;;;;5014510;28;20211;-68
2023/03/13 04:08:24;;;;;;;0.93;0.60;;;13.50;99.90;;;;;;5010365;28;20168;-65
2023/03/13 04:10:50;;;;;;;1.25;0.50;;;13.50;99.90;;;;;;5002260;28;20175;-63
2023/03/13 04:13:15;;;;;;;0.75;0.50;;;13.50;99.90;;;;;;5017620;28;20192;-64
2023/03/13 04:15:41;;;;;;;0.80;0.60;;;13.50;99.90;;;;;;5018122;28;20176;-63
2023/03/13 04:18:07;;;;;;;0.88;0.50;;;13.50;99.90;;;;;;5017776;28;20176;-65
2023/03/13 04:20:35;;;;;;;1.15;0.40;;;13.60;99.90;;;;;;5017630;28;20219;-67
2023/03/13 04:23:01;;;;;;;0.43;0.30;;;13.60;99.90;;;;;;5017972;28;20186;-63
2023/03/13 04:25:29;;;;;;;0.50;0.40;;;13.60;99.90;;;;;;5018222;28;20190;-67
2023/03/13 04:27:55;;;;;;;0.65;0.35;;;13.60;99.90;;;;;;5017826;28;20260;-68
2023/03/13 04:30:22;;;;;;;0.30;0.30;;;13.60;99.90;;;;;;5018116;28;20161;-68
2023/03/13 04:32:49;;;;;;;0.40;0.40;;;13.70;99.90;;;;;;5016690;28;20176;-78
2023/03/13 04:35:15;;;;;;;0.60;0.40;;;13.70;99.90;;;;;;4997534;28;20202;-79
2023/03/13 04:37:42;;;;;;;0.45;0.40;;;13.70;99.90;;;;;;4996677;28;20176;-79
2023/03/13 04:40:12;;;;;;;0.68;0.40;;;13.70;99.90;;;;;;4996118;28;20227;-75
2023/03/13 04:42:43;;;;;;;0.70;0.60;;;13.70;99.90;;;;;;4996160;28;20219;-77
2023/03/13 04:45:13;;;;;;;0.77;0.60;;;13.70;99.90;;;;;;4996291;28;20172;-75
2023/03/13 04:47:39;;;;;;;1.45;1.08;;;13.70;99.90;;;;;;4995608;28;20270;-78
2023/03/13 04:50:05;;;;;;;0.73;0.70;;;13.70;99.90;;;;;;4995294;28;20183;-79
2023/03/13 04:52:30;;;;;;;0.98;0.50;;;13.80;99.90;;;;;;4995236;28;20180;-78
2023/03/13 04:54:56;;;;;;;1.50;0.45;;;13.80;99.90;;;;;;4995322;28;20242;-78
2023/03/13 04:57:21;;;;;;;0.45;0.40;;;13.80;99.90;;;;;;4995170;28;20191;-77
2023/03/13 04:59:48;;;;;;;0.50;0.40;;;13.80;99.90;;;;;;4995183;28;20234;-76
2023/03/13 05:02:14;;;;;;;0.50;0.40;;;13.90;99.90;;;;;;4995339;28;20227;-74
2023/03/13 05:04:42;;;;;;;0.68;0.40;;;13.90;99.90;;;;;;4994570;28;20204;-76
2023/03/13 05:07:10;;;;;;;0.95;0.43;;;13.90;99.90;;;;;;4994738;28;20195;-78
2023/03/13 05:09:36;;;;;;;0.70;0.50;;;14.00;99.90;;;;;;4995221;28;20180;-78
2023/03/13 05:12:01;;;;;;;0.50;0.40;;;14.00;99.90;;;;;;4994676;28;20176;-79
2023/03/13 05:14:29;;;;;;;0.70;0.40;;;14.00;99.90;;;;;;4994402;28;20172;-72
2023/03/13 05:16:57;;;;;;;0.30;0.30;;;14.10;99.90;;;;;;4994535;28;20210;-73
2023/03/13 05:19:25;;;;;;;0.25;0.20;;;14.10;99.90;;;;;;4994723;28;20231;-78
2023/03/13 05:21:51;;;;;;;0.77;0.47;;;14.10;99.90;;;;;;4995170;28;20207;-76
2023/03/13 05:24:19;;;;;;;0.90;0.80;;;14.20;99.90;;;;;;4994523;28;20183;-79
2023/03/13 05:26:45;;;;;;;3.97;2.65;;;14.30;99.90;;;;;;4995232;28;20179;-73
2023/03/13 05:29:10;;;;;;;12.70;6.38;;;14.30;99.90;;;;;;4994055;28;20180;-70
2023/03/13 05:31:36;;;;;;;7.22;3.90;;;14.40;99.90;;;;;;4994262;28;20183;-69
2023/03/13 05:34:01;;;;;;;5.07;3.30;;;14.40;99.90;;;;;;4994585;28;20172;-73
2023/03/13 05:36:27;;;;;;;4.03;2.17;;;14.40;99.90;;;;;;4994040;28;20203;-79
2023/03/13 05:38:55;;;;;;;2.88;1.98;;;14.50;99.90;;;;;;4994850;28;20210;-76
2023/03/13 05:41:23;;;;;;;2.20;1.42;;;14.50;99.90;;;;;;4994644;28;20263;-79
2023/03/13 05:43:51;;;;;;;2.00;1.33;;;14.50;99.90;;;;;;4994880;28;20179;-79
2023/03/13 05:46:19;;;;;;;1.15;0.80;;;14.60;99.90;;;;;;4995268;28;20270;-78
2023/03/13 05:48:45;;;;;;;0.65;0.50;;;14.60;99.90;;;;;;4994830;28;20259;-73
2023/03/13 05:51:15;;;;;;;0.60;0.52;;;14.60;99.90;;;;;;4995278;28;20187;-75
2023/03/13 05:53:43;;;;;;;0.80;0.60;;;14.70;99.90;;;;;;4994975;28;20172;-79
2023/03/13 05:56:09;;;;;;;0.25;0.25;;;14.70;99.90;;;;;;4994712;28;20323;-74
2023/03/13 05:58:40;;;;;;;0.40;0.40;;;14.70;99.90;;;;;;4996082;28;20238;-78
2023/03/13 06:01:10;;;;;;;0.30;0.30;;;14.70;99.90;;;;;;4994981;28;20203;-77
2023/03/13 06:03:36;;;;;;;0.65;0.40;;;14.80;99.90;;;;;;4995208;28;20203;-78
2023/03/13 06:06:04;;;;;;;0.30;0.30;;;14.80;99.90;;;;;;4996630;28;20203;-77
2023/03/13 06:08:34;;;;;;;0.60;0.40;;;14.80;99.90;;;;;;4995680;28;20183;-74
2023/03/13 06:11:01;;;;;;;0.50;0.30;;;14.80;99.90;;;;;;4996145;28;20179;-70
2023/03/13 06:13:27;;;;;;;0.98;0.50;;;14.90;99.90;;;;;;4995328;28;20266;-76
2023/03/13 06:15:56;;;;;;;1.02;0.40;;;14.90;99.90;;;;;;4993484;28;20180;-77
2023/03/13 06:18:23;;;;;;;1.02;0.52;;;14.90;99.90;;;;;;4993548;28;20180;-78
2023/03/13 06:20:57;;;;;;;0.90;0.47;;;14.90;99.90;;;;;;4993736;28;20203;-79
2023/03/13 06:23:24;;;;;;;0.73;0.73;;;15.00;99.90;;;;;;4994353;28;20168;-75
2023/03/13 06:25:50;;;;;;;1.60;0.88;;;15.00;99.90;;;;;;4993902;28;20203;-70
2023/03/13 06:28:16;;;;;;;1.10;0.90;;;15.00;99.90;;;;;;4993802;28;20176;-75
2023/03/13 06:30:42;;;;;;;2.05;1.13;;;15.00;99.90;;;;;;4993526;28;20172;-75
2023/03/13 06:33:08;;;;;;;2.65;1.58;;;15.00;99.90;;;;;;4993322;28;20168;-68
2023/03/13 06:35:33;;;;;;;1.02;0.80;;;15.00;99.90;;;;;;4993554;28;20259;-77
2023/03/13 06:38:02;;;;;;;0.93;0.63;;;15.10;99.90;;;;;;4993671;28;20239;-78
2023/03/13 06:40:27;;;;;;;0.60;0.50;;;15.10;99.90;;;;;;4993002;28;20261;-78
2023/03/13 06:42:53;;;;;;;0.43;0.40;;;15.10;99.90;;;;;;4993291;28;20194;-78
2023/03/13 06:45:21;;;;;;;0.88;0.50;;;15.10;99.90;;;;;;4998995;28;20188;-72
2023/03/13 06:47:50;;;;;;;1.73;0.35;;;15.20;99.90;;;;;;5006402;28;20180;-75
2023/03/13 06:50:16;;;;;;;1.35;0.57;;;15.20;99.90;;;;;;4994853;28;20206;-74
2023/03/13 06:52:42;;;;;;;1.08;0.80;;;15.20;99.90;;;;;;5006294;28;20175;-79
2023/03/13 06:55:08;;;;;;;0.93;0.82;;;15.30;99.90;;;;;;5009620;28;20184;-66
2023/03/13 06:57:34;;;;;;;1.42;0.60;;;15.30;99.90;;;;;;5012836;28;20199;-67
2023/03/13 06:59:59;;;;;;;1.20;0.73;;;15.30;99.90;;;;;;4996356;28;20202;-76
2023/03/13 07:02:25;;;;;;;0.95;0.85;;;15.40;99.90;;;;;;4993661;28;20196;-72
2023/03/13 07:04:51;;;;;;;1.05;0.80;;;15.40;99.90;;;;;;4993192;28;20237;-78
2023/03/13 07:07:16;;;;;;;1.45;0.98;;;15.50;99.90;;;;;;4992920;28;20207;-75
2023/03/13 07:09:44;;;;;;;2.13;1.10;;;15.50;99.90;;;;;;4992940;28;20168;-79
2023/03/13 07:12:14;;;;;;;1.50;1.10;;;15.60;99.90;;;;;;4992569;28;20279;-77
2023/03/13 07:14:42;;;;;;;2.30;1.45;;;15.70;99.90;;;;;;4992851;28;20176;-71
2023/03/13 07:17:07;;;;;;;2.72;1.20;;;15.70;99.90;;;;;;4993394;28;20172;-79
2023/03/13 07:19:33;;;;;;;1.92;1.17;;;15.70;99.90;;;;;;4992457;28;20179;-80
2023/03/13 07:22:01;;;;;;;2.75;1.50;;;15.80;99.90;;;;;;4993500;28;20208;-76
2023/03/13 07:24:27;;;;;;;1.52;1.10;;;15.80;99.90;;;;;;4993204;28;20176;-73
2023/03/13 07:26:54;;;;;;;2.03;1.23;;;15.80;99.90;;;;;;4992996;28;20195;-70
2023/03/13 07:29:20;;;;;;;2.75;1.40;;;15.90;99.90;;;;;;4991877;28;20179;-78
2023/03/13 07:31:48;;;;;;;2.80;1.30;;;15.90;99.90;;;;;;4992287;28;20172;-78
2023/03/13 07:34:16;;;;;;;1.98;1.35;;;16.00;99.90;;;;;;4992382;28;20180;-74
2023/03/13 07:36:44;;;;;;;2.38;1.25;;;16.00;99.90;;;;;;4992481;28;20175;-79
2023/03/13 07:39:10;;;;;;;4.63;1.83;;;16.00;99.90;;;;;;4992650;28;20180;-75
2023/03/13 07:41:35;;;;;;;2.22;1.35;;;16.10;99.90;;;;;;4992901;28;20199;-78
2023/03/13 07:44:01;;;;;;;3.83;1.50;;;16.10;99.90;;;;;;4991986;28;20168;-76
2023/03/13 07:46:29;;;;;;;3.28;1.30;;;16.10;99.90;;;;;;4992350;28;20169;-74
2023/03/13 07:48:57;;;;;;;2.85;1.42;;;16.10;99.90;;;;;;4992986;28;20168;-67
2023/03/13 07:51:25;;;;;;;1.75;1.20;;;16.20;99.90;;;;;;4991445;28;20266;-66
2023/03/13 07:53:53;;;;;;;3.13;1.38;;;16.20;99.90;;;;;;4991889;28;20179;-68
2023/03/13 07:56:22;;;;;;;2.65;1.40;;;16.30;99.90;;;;;;4992529;28;20360;-67
2023/03/13 07:58:51;;;;;;;3.70;1.30;;;16.30;99.90;;;;;;4991673;28;20199;-67
2023/03/13 08:01:25;;;;;;;2.75;1.52;;;16.30;99.90;;;;;;4991744;28;20246;-65
2023/03/13 08:03:51;;;;;;;3.03;1.60;;;16.40;99.90;;;;;;4991573;28;20172;-67
2023/03/13 08:06:22;;;;;;;3.80;1.50;;;16.40;99.90;;;;;;4992224;28;20179;-66
2023/03/13 08:08:49;;;;;;;2.75;1.30;;;16.50;99.90;;;;;;4991622;28;20168;-67
2023/03/13 08:11:20;;;;;;;2.40;1.40;;;16.50;99.90;;;;;;4992413;28;20234;-65
2023/03/13 08:13:48;;;;;;;2.65;1.25;;;16.60;99.90;;;;;;4991790;28;20172;-68
2023/03/13 08:16:20;;;;;;;2.50;1.40;;;16.60;99.90;;;;;;4991823;28;20179;-67
2023/03/13 08:18:51;;;;;;;1.95;1.20;;;16.60;99.90;;;;;;4992345;28;20176;-65
2023/03/13 08:21:24;;;;;;;3.63;1.42;;;16.70;99.90;;;;;;4991905;28;20208;-67
2023/03/13 08:23:58;;;;;;;3.08;1.45;;;16.70;99.90;;;;;;4991288;28;20226;-65
2023/03/13 08:26:26;;;;;;;2.20;1.10;;;16.70;99.90;;;;;;4992037;28;20192;-67
2023/03/13 08:28:56;;;;;;;3.10;1.35;;;16.70;99.90;;;;;;4991224;28;20182;-67
2023/03/13 08:31:46;;;;;;;2.42;1.50;;;16.70;99.90;;;;;;4991876;28;20203;-66
2023/03/13 08:34:13;;;;;;;4.18;1.80;;;16.80;99.90;;;;;;4992152;28;20172;-67
2023/03/13 08:36:39;;;;;;;3.00;1.58;;;16.80;99.90;;;;;;4991418;28;20210;-65
2023/03/13 08:39:09;;;;;;;4.25;2.50;;;16.80;99.90;;;;;;4992326;28;20199;-66
2023/03/13 08:41:36;;;;;;;2.85;1.70;;;16.80;99.90;;;;;;4995739;28;20204;-66
2023/03/13 08:44:03;;;;;;;3.58;1.60;;;16.80;99.90;;;;;;4995124;28;20172;-66
2023/03/13 08:46:31;;;;;;;5.15;1.80;;;16.80;99.90;;;;;;4995085;28;20218;-63
2023/03/13 08:48:57;;;;;;;3.95;1.60;;;16.80;99.90;;;;;;4994943;28;20263;-65
2023/03/13 08:51:25;;;;;;;3.08;1.50;;;16.80;99.90;;;;;;4994960;28;20176;-67
2023/03/13 08:53:51;;;;;;;2.70;1.50;;;16.80;99.90;;;;;;4994822;28;20196;-67
2023/03/13 08:56:20;;;;;;;3.55;1.90;;;16.80;99.90;;;;;;4995437;28;20180;-64
2023/03/13 08:58:55;;;;;;;5.78;1.90;;;16.80;99.90;;;;;;4994827;28;20192;-68
2023/03/13 09:01:25;;;;;;;4.57;1.52;;;16.80;99.90;;;;;;4994298;28;20223;-64
2023/03/13 09:03:51;;;;;;;3.83;1.50;;;16.80;99.90;;;;;;4994485;28;20165;-67
2023/03/13 09:06:17;;;;;;;3.42;1.67;;;16.80;99.90;;;;;;4994743;28;20182;-67
2023/03/13 09:08:45;;;;;;;1.77;1.20;;;16.80;99.90;;;;;;4994346;28;20196;-66
2023/03/13 09:11:14;;;;;;;3.42;1.30;;;16.90;99.90;;;;;;4995049;28;20180;-67
2023/03/13 09:13:44;;;;;;;3.58;1.30;;;16.90;99.90;;;;;;4995138;28;20247;-68
2023/03/13 09:16:23;;;;;;;2.83;1.17;;;16.90;99.90;;;;;;4994765;28;20231;-67
2023/03/13 09:18:50;;;;;;;2.10;1.10;;;16.90;99.90;;;;;;4994090;28;20266;-66
2023/03/13 09:21:24;;;;;;;6.13;1.50;;;17.00;99.90;;;;;;4994424;28;20199;-63
2023/03/13 09:23:50;;;;;;;1.42;0.90;;;17.00;99.90;;;;;;4994338;28;20196;-67
2023/03/13 09:26:19;;;;;;;3.50;1.20;;;17.00;99.90;;;;;;4978590;28;20172;-68
2023/03/13 09:28:50;;;;;;;1.75;1.10;;;17.00;99.90;;;;;;4994502;28;20177;-67
2023/03/13 09:31:23;;;;;;;4.00;1.27;;;17.10;99.90;;;;;;4994691;28;20204;-67
2023/03/13 09:33:50;;;;;;;1.60;1.08;;;17.10;99.90;;;;;;4994706;28;20176;-66
2023/03/13 09:36:20;;;;;;;2.10;1.10;;;17.10;99.90;;;;;;4994460;28;20176;-65
2023/03/13 09:38:46;;;;;;;2.35;1.00;;;17.10;99.90;;;;;;4994064;28;20200;-66
2023/03/13 09:41:33;;;;;;;1.83;0.93;;;17.10;99.90;;;;;;4993687;28;20204;-66
2023/03/13 09:44:19;;;;;;;2.88;0.80;;;17.10;99.90;;;;;;4994297;28;20195;-66
2023/03/13 09:47:08;;;;;;;2.33;1.17;;;17.10;99.90;;;;;;4993463;28;20238;-66
2023/03/13 09:49:44;;;;;;;1.73;1.00;;;17.10;99.90;;;;;;4994170;28;20168;-64
2023/03/13 09:52:24;;;;;;;2.65;1.02;;;17.10;99.90;;;;;;4993289;28;20175;-63
2023/03/13 09:55:04;;;;;;;1.17;0.98;;;17.10;99.90;;;;;;4994113;28;20191;-66
2023/03/13 09:57:48;;;;;;;1.17;0.80;;;17.10;99.90;;;;;;4978524;28;20263;-66
2023/03/13 10:00:24;;;;;;;1.33;1.00;;;17.00;99.90;;;;;;4993276;28;20203;-67
2023/03/13 10:03:04;;;;;;;1.05;0.90;;;17.00;99.90;;;;;;4993814;28;20207;-66
2023/03/13 10:05:31;;;;;;;3.80;1.00;;;17.00;99.90;;;;;;4994071;28;20172;-66
2023/03/13 10:08:16;;;;;;;1.85;0.80;;;17.00;99.90;;;;;;4993772;28;20216;-66
2023/03/13 10:10:44;;;;;;;1.33;0.88;;;17.10;99.90;;;;;;4993641;28;20176;-66
2023/03/13 10:13:20;;;;;;;2.00;0.82;;;17.00;99.90;;;;;;4993775;28;20175;-66
2023/03/13 10:16:00;;;;;;;2.20;0.85;;;17.00;99.90;;;;;;4993634;28;20199;-67
2023/03/13 10:18:26;;;;;;;1.73;0.88;;;17.00;99.90;;;;;;4993836;28;20225;-67
2023/03/13 10:21:06;;;;;;;1.80;0.80;;;17.10;99.90;;;;;;4993837;28;20172;-67
2023/03/13 10:23:53;;;;;;;1.42;0.90;;;17.10;99.90;;;;;;4993744;28;20214;-68
2023/03/13 10:26:25;;;;;;;2.05;1.00;;;17.10;99.90;;;;;;4994232;28;20172;-66
2023/03/13 10:28:51;;;;;;;1.65;1.00;;;17.10;99.90;;;;;;4993796;28;20210;-67
2023/03/13 10:31:31;;;;;;;3.38;1.00;;;17.10;99.90;;;;;;4993614;28;20180;-68
2023/03/13 10:34:12;;;;;;;1.42;0.98;;;17.20;99.90;;;;;;4993247;28;20248;-67
2023/03/13 10:36:58;;;;;;;1.55;0.88;;;17.20;99.90;;;;;;4992621;28;20187;-67
2023/03/13 10:39:30;;;;;;;1.30;1.08;;;17.20;99.90;;;;;;4992503;28;20262;-67
2023/03/13 10:42:09;;;;;;;1.58;0.90;;;17.20;99.90;;;;;;4977395;28;20191;-66
2023/03/13 10:44:37;;;;;;;1.42;0.80;;;17.20;99.90;;;;;;4992726;28;20212;-66
2023/03/13 10:47:10;;;;;;;1.45;0.88;;;17.20;99.90;;;;;;4992748;28;20180;-64
2023/03/13 10:49:47;;;;;;;1.60;0.93;;;17.30;99.90;;;;;;4992591;28;20179;-62
2023/03/13 10:52:32;;;;;;;1.67;0.90;;;17.30;99.90;;;;;;4993032;28;20207;-65
2023/03/13 10:55:00;;;;;;;0.93;0.73;;;17.30;99.90;;;;;;4993174;28;20176;-66
2023/03/13 10:57:35;;;;;;;1.17;0.82;;;17.40;99.90;;;;;;4992499;28;20284;-68
2023/03/13 11:00:23;;;;;;;1.80;0.90;;;17.40;99.90;;;;;;4992695;28;20203;-66
2023/03/13 11:02:49;;;;;;;0.75;0.60;;;17.50;99.90;;;;;;4992360;28;20212;-66
2023/03/13 11:05:32;;;;;;;0.90;0.70;;;17.50;99.90;;;;;;4992494;28;20190;-66
2023/03/13 11:08:20;;;;;;;0.98;0.80;;;17.50;99.90;;;;;;4992564;28;20168;-67
2023/03/13 11:10:59;;;;;;;1.17;0.52;;;17.60;99.90;;;;;;4992148;28;20172;-67
2023/03/13 11:13:28;;;;;;;0.63;0.60;;;17.70;99.90;;;;;;4992123;28;20183;-67
2023/03/13 11:16:00;;;;;;;1.00;0.65;;;17.70;99.90;;;;;;4992614;28;20187;-65
2023/03/13 11:19:03;;;;;;;0.80;0.57;;;17.70;99.90;;;;;;4992880;28;20172;-68
2023/03/13 11:21:51;;;;;;;0.88;0.65;;;17.90;99.90;;;;;;4991512;28;20211;-68
2023/03/13 11:24:37;;;;;;;0.77;0.70;;;18.00;99.90;;;;;;4988570;28;20184;-67
2023/03/13 11:27:34;;;;;;;0.73;0.60;;;18.10;99.90;;;;;;4992836;28;20195;-66
2023/03/13 11:30:14;;;;;;;0.57;0.45;;;18.30;99.90;;;;;;4992178;28;20232;-68
2023/03/13 11:32:53;;;;;;;1.17;0.63;;;18.40;99.90;;;;;;4991744;28;20190;-66
2023/03/13 11:35:42;;;;;;;0.60;0.50;;;18.60;99.90;;;;;;4992268;28;20171;-67
2023/03/13 11:38:33;;;;;;;0.90;0.60;;;18.80;99.90;;;;;;4988913;28;20180;-67
2023/03/13 11:41:23;;;;;;;0.90;0.47;;;19.00;99.90;;;;;;4992053;28;20260;-67
2023/03/13 11:44:03;;;;;;;0.55;0.43;;;19.10;99.90;;;;;;4991598;28;20203;-67
2023/03/13 11:46:42;;;;;;;0.98;0.60;;;19.20;99.90;;;;;;4992419;28;20243;-66
2023/03/13 11:49:14;;;;;;;0.57;0.38;;;19.30;99.90;;;;;;4991685;28;20176;-67
2023/03/13 11:52:00;;;;;;;0.50;0.40;;;19.50;99.90;;;;;;4991422;28;20204;-66
2023/03/13 11:54:49;;;;;;;1.25;0.50;;;19.70;99.90;;;;;;4992289;28;20181;-65
2023/03/13 11:57:29;;;;;;;1.63;0.43;;;19.80;99.90;;;;;;4976354;28;20188;-67
2023/03/13 12:00:27;;;;;;;0.57;0.40;;;19.90;99.90;;;;;;4992570;28;20176;-67
2023/03/13 12:02:56;;;;;;;0.77;0.40;;;19.90;99.90;;;;;;4992210;28;20262;-66
2023/03/13 12:05:29;;;;;;;0.88;0.43;;;19.90;99.90;;;;;;4991925;28;20200;-67
2023/03/13 12:08:03;;;;;;;1.65;0.43;;;19.90;99.90;;;;;;4992214;28;20178;-67
2023/03/13 12:10:36;;;;;;;0.40;0.40;;;19.90;99.90;;;;;;4991451;28;20175;-63
2023/03/13 12:13:04;;;;;;;1.27;0.57;;;19.80;99.90;;;;;;4991419;28;20199;-68
2023/03/13 12:15:39;;;;;;;1.13;0.50;;;19.80;99.90;;;;;;4995103;28;20188;-66
2023/03/13 12:18:31;;;;;;;1.45;0.50;;;19.80;99.90;;;;;;4996218;28;20175;-67
2023/03/13 12:21:29;;;;;;;1.27;0.52;;;19.70;99.90;;;;;;4995668;28;20195;-67
2023/03/13 12:24:16;;;;;;;0.75;0.65;;;19.80;99.90;;;;;;4995864;28;20179;-68
2023/03/13 12:26:51;;;;;;;0.88;0.52;;;19.70;99.90;;;;;;4996034;28;20172;-65
2023/03/13 12:29:52;;;;;;;0.60;0.50;;;19.70;99.90;;;;;;4995359;28;20177;-67
2023/03/13 12:32:33;;;;;;;0.80;0.50;;;19.70;99.90;;;;;;4974772;28;20188;-67
2023/03/13 12:35:07;;;;;;;1.23;0.52;;;19.70;99.90;;;;;;4995623;28;20210;-67
2023/03/13 12:37:42;;;;;;;1.02;0.50;;;19.60;99.90;;;;;;4995824;28;20172;-66
2023/03/13 12:40:30;;;;;;;1.95;0.82;;;19.60;99.90;;;;;;4994927;28;20218;-67
2023/03/13 12:43:23;;;;;;;1.05;0.65;;;19.50;99.90;;;;;;4995130;28;20216;-68
2023/03/13 12:45:58;;;;;;;1.20;0.60;;;19.50;99.90;;;;;;4995176;28;20219;-67
2023/03/13 12:48:45;;;;;;;0.75;0.70;;;19.40;99.90;;;;;;4994676;28;20226;-67
2023/03/13 12:51:31;;;;;;;1.83;0.80;;;19.30;99.90;;;;;;4995276;28;20247;-68
2023/03/13 12:54:09;;;;;;;1.80;0.80;;;19.30;99.90;;;;;;4995470;28;20184;-69
2023/03/13 12:56:37;;;;;;;1.17;0.82;;;19.30;99.90;;;;;;4994493;28;20195;-67
2023/03/13 12:59:24;;;;;;;1.08;0.70;;;19.20;99.90;;;;;;4995238;28;20184;-67
2023/03/13 13:01:55;;;;;;;1.48;0.70;;;19.20;99.90;;;;;;4979511;28;20192;-67
2023/03/13 13:04:21;;;;;;;0.90;0.68;;;19.20;99.90;;;;;;4995264;28;20224;-66
2023/03/13 13:07:06;;;;;;;1.85;0.60;;;19.10;99.90;;;;;;4994557;28;20200;-67